• Join FlightAware (Why Join?)
  • Login
  • US Flag 
02:28AM EDT


 

Airport Tracker/Info


-or-


 

Live Flight TrackerFlight Track Log ✈ KAP720 ✈ 08-May-2013 ✈ KOGS - KALB

Flight Track Log - Related Links

Times and Time Zones

All times are in EDT time to prevent confusion due to time zone crossing. See the KAP720 flight status page for this flight to view local times or setup timezone preferences in your user account.

Time Position Orientation Groundspeed Altitude Reporting Facility
EDT Latitude Longitude Course Direction KTS MPH feet Rate Location/Type
05:35PM 44.6072 -75.3822 68° East 154 177 3,800  Level Boston Center
05:36PM 44.5850 -75.3550 139° Southeast 126 145 4,500 600 Climbing Boston Center
05:37PM 44.5589 -75.3100 129° Southeast 121 139 5,100 600 Climbing Boston Center
05:38PM 44.5303 -75.2853 148° Southeast 127 146 5,800 720 Climbing Boston Center
05:39PM 44.4994 -75.2692 160° South 122 140 6,600 660 Climbing Boston Center
05:40PM 44.7792 -75.1146 68° East  Level FlightAware Approximate
05:40PM 44.4686 -75.2561 163° South 122 140 7,200  Level Boston Center
05:41PM 44.4378 -75.2431 163° South 122 140 8,000 600 Climbing Boston Center
05:42PM 44.4108 -75.2272 157° South 122 140 8,500 420 Climbing Boston Center
05:43PM 44.3803 -75.1997 147° Southeast 122 140 8,900 300 Climbing Boston Center
05:44PM 44.3475 -75.1750 152° Southeast 128 147 9,100 60 Climbing Boston Center
05:45PM 44.3131 -75.1414 145° Southeast 139 160 9,100 -60 Level Boston Center
05:46PM 44.2783 -75.1108 148° Southeast 145 167 9,000 -60 Descending Boston Center
05:47PM 44.2436 -75.0803 148° Southeast 145 167 9,000  Level Boston Center
05:48PM 44.2047 -75.0467 148° Southeast 140 161 9,000  Level Boston Center
05:49PM 44.1719 -75.0192 149° Southeast 140 161 9,000  Level Boston Center
05:50PM 44.1392 -74.9917 149° Southeast 140 161 9,000  Level Boston Center
05:51PM 44.1086 -74.9614 145° Southeast 140 161 9,000  Level Boston Center
05:52PM 44.0758 -74.9342 149° Southeast 140 161 9,000  Level Boston Center
05:53PM 44.0453 -74.9067 147° Southeast 135 155 9,000  Level Boston Center
05:54PM 44.0144 -74.8794 148° Southeast 135 155 9,000  Level Boston Center
05:55PM 43.9839 -74.8522 147° Southeast 135 155 9,000  Level Boston Center
05:56PM 43.9511 -74.8281 152° Southeast 135 155 9,000  Level Boston Center
05:57PM 43.9244 -74.8039 147° Southeast 135 155 9,000  Level Boston Center
05:58PM 43.8917 -74.7736 146° Southeast 135 155 9,000  Level Boston Center
05:59PM 43.8589 -74.7494 152° Southeast 135 155 9,000  Level Boston Center
06:00PM 43.8283 -74.7194 145° Southeast 135 155 9,000  Level Boston Center
06:01PM 43.7892 -74.6864 149° Southeast 135 155 9,000  Level Boston Center
06:02PM 43.7544 -74.6564 148° Southeast 135 155 9,000  Level Boston Center
06:03PM 43.7236 -74.6292 147° Southeast 135 155 9,000  Level Boston Center
06:04PM 43.6908 -74.6050 152° Southeast 135 155 9,000  Level Boston Center
06:05PM 43.6581 -74.5781 149° Southeast 135 155 9,000  Level Boston Center
06:06PM 43.6211 -74.5453 147° Southeast 135 155 9,000  Level Boston Center
06:07PM 43.5903 -74.5183 148° Southeast 135 155 9,000  Level Boston Center
06:08PM 43.5594 -74.4914 148° Southeast 135 155 9,000  Level Boston Center
06:09PM 43.5286 -74.4647 148° Southeast 135 155 9,000  Level Boston Center
06:10PM 43.5039 -74.4467 152° Southeast 132 152 9,000  Level Boston Center
06:10PM 43.4958 -74.4350 134° Southeast 135 155 9,000  Level Boston Center
06:11PM 43.4814 -74.4289 163° South 135 155 9,000  Level Boston Center
06:11PM 43.4631 -74.4081 140° Southeast 135 155 9,000  Level Boston Center
06:12PM 43.4467 -74.3961 152° Southeast 139 160 9,000  Level Boston Center
06:12PM 43.4300 -74.3814 147° Southeast 135 155 9,000  Level Boston Center
06:13PM 43.4197 -74.3725 148° Southeast 138 159 9,000  Level Boston Center
06:13PM 43.3992 -74.3547 148° Southeast 135 155 9,000  Level Boston Center
06:14PM 43.3892 -74.3428 139° Southeast 132 152 9,000  Level Boston Center
06:14PM 43.3644 -74.3250 152° Southeast 135 155 9,000  Level Boston Center
06:15PM 43.3500 -74.3158 155° Southeast 135 155 9,000  Level Boston Center
06:15PM 43.3314 -74.2983 146° Southeast 140 161 9,000  Level Boston Center
06:16PM 43.3192 -74.2894 152° Southeast 138 159 9,000  Level Boston Center
06:16PM 43.2986 -74.2686 144° Southeast 140 161 9,000  Level Boston Center
06:17PM 43.2883 -74.2600 149° Southeast 139 160 9,000  Level Boston Center
06:17PM 43.2678 -74.2422 148° Southeast 140 161 9,000  Level Boston Center
06:18PM 43.2594 -74.2333 142° Southeast 137 158 9,000  Level Boston Center
06:18PM 43.2392 -74.2100 140° Southeast 134 154 9,000  Level Boston Center
06:19PM 43.2308 -74.2039 152° Southeast 131 151 9,000  Level Boston Center
06:19PM 43.2125 -74.1750 131° Southeast 134 154 9,000  Level Boston Center
06:20PM 43.2042 -74.1692 153° Southeast 132 152 9,000 -300 Level Boston Center
06:21PM 43.1797 -74.1369 136° Southeast 135 155 8,700 -540 Descending Boston Center
06:21PM 43.1511 -74.1022 138° Southeast 142 163 8,100 -780 Descending Boston Center
06:22PM 43.1183 -74.0586 136° Southeast 157 181 7,300 -720 Descending Boston Center
06:23PM 43.0878 -74.0181 136° Southeast 157 181 6,700 -720 Descending Boston Center
06:24PM 43.0547 -73.9800 140° Southeast 157 181 5,900 -780 Descending Boston Center
06:25PM 43.0447 -73.9658 134° Southeast 154 177 5,700 -780 Descending Boston Center
06:26PM 43.0139 -73.9253 136° Southeast 158 182 4,900 -840 Descending Boston Center
06:27PM 42.9811 -73.8875 140° Southeast 159 183 4,100 -840 Descending Boston Center
06:28PM 42.9397 -73.8639 157° South 159 183 3,300 -720 Descending Boston Center
06:29PM 42.8961 -73.8372 156° South 147 169 2,600 -420 Descending Boston Center
06:30PM 42.8567 -73.8194 162° South 130 150 2,400 -480 Descending Boston Center
06:31PM 42.8236 -73.8131 172° South 119 137 1,700 -720 Descending Boston Center
06:32PM 42.7839 -73.8064 173° South 116 133 900 -720 Descending Boston Center
06:34PM 42.7491 -73.8020 160° South  Level Estimated
06:41PM 42.7491 -73.8020 160° South  Level Estimated
06:42PM 42.7491 -73.8020 160° South  Level Estimated
06:43PM 42.7491 -73.8020 160° South  Level Estimated